createdAt,value
2023-06-10T00:00:36.594Z,59.00
2023-06-10T00:03:04.524Z,59.12
2023-06-10T00:05:31.837Z,59.33
2023-06-10T00:07:58.300Z,59.41
2023-06-10T00:10:27.315Z,59.38
2023-06-10T00:12:53.836Z,59.35
2023-06-10T00:15:20.513Z,59.24
2023-06-10T00:17:48.222Z,59.47
2023-06-10T00:20:14.773Z,59.57
2023-06-10T00:22:44.361Z,59.56
2023-06-10T00:25:11.879Z,59.57
2023-06-10T00:27:38.816Z,59.57
2023-06-10T00:30:08.234Z,60.23
2023-06-10T00:32:35.850Z,60.93
2023-06-10T00:35:03.927Z,61.28
2023-06-10T00:37:31.196Z,61.75
2023-06-10T00:39:57.672Z,61.87
2023-06-10T00:42:25.287Z,62.32
2023-06-10T00:44:52.549Z,62.78
2023-06-10T00:47:19.600Z,62.90
2023-06-10T00:49:48.090Z,62.99
2023-06-10T00:52:17.385Z,62.90
2023-06-10T00:54:44.705Z,62.78
2023-06-10T00:57:11.475Z,63.22
2023-06-10T00:59:37.983Z,63.96
2023-06-10T01:02:05.409Z,63.44
2023-06-10T01:04:31.999Z,64.17
2023-06-10T01:07:16.267Z,64.45
2023-06-10T01:10:26.426Z,64.31
2023-06-10T01:13:05.542Z,64.12
2023-06-10T01:15:32.824Z,64.53
2023-06-10T01:18:02.625Z,64.88
2023-06-10T01:20:33.428Z,64.95
2023-06-10T01:23:03.449Z,65.03
2023-06-10T01:25:34.061Z,65.31
2023-06-10T01:28:07.966Z,65.33
2023-06-10T01:30:46.873Z,65.81
2023-06-10T01:33:17.899Z,66.04
2023-06-10T01:35:44.960Z,66.05
2023-06-10T01:38:13.988Z,66.59
2023-06-10T01:40:41.219Z,66.49
2023-06-10T01:43:07.686Z,66.82
2023-06-10T01:45:34.224Z,66.78
2023-06-10T01:48:02.034Z,67.10
2023-06-10T01:50:51.843Z,67.43
2023-06-10T01:53:20.967Z,67.50
2023-06-10T01:56:07.396Z,67.72
2023-06-10T01:58:34.045Z,67.69
2023-06-10T02:01:00.798Z,67.42
2023-06-10T02:03:27.588Z,67.51
2023-06-10T02:05:56.018Z,67.59
2023-06-10T02:08:22.949Z,67.31
2023-06-10T02:10:49.567Z,67.89
2023-06-10T02:13:16.159Z,68.46
2023-06-10T02:15:44.232Z,68.21
2023-06-10T02:18:12.948Z,68.62
2023-06-10T02:20:39.956Z,68.51
2023-06-10T02:23:06.423Z,66.50
2023-06-10T02:25:33.080Z,67.52
2023-06-10T02:27:59.498Z,66.41
2023-06-10T02:30:26.000Z,66.20
2023-06-10T02:32:53.745Z,66.74
2023-06-10T02:35:20.331Z,67.36
2023-06-10T02:37:47.100Z,68.16
2023-06-10T02:40:13.825Z,68.24
2023-06-10T02:42:40.642Z,68.55
2023-06-10T02:45:08.294Z,68.94
2023-06-10T02:47:35.148Z,68.99
2023-06-10T02:50:01.923Z,69.30
2023-06-10T02:52:28.507Z,69.42
2023-06-10T02:54:55.068Z,69.60
2023-06-10T02:57:21.626Z,69.74
2023-06-10T02:59:48.212Z,69.80
2023-06-10T03:02:14.647Z,70.33
2023-06-10T03:04:42.352Z,69.91
2023-06-10T03:07:09.443Z,70.32
2023-06-10T03:09:35.889Z,70.50
2023-06-10T03:12:02.699Z,70.65
2023-06-10T03:14:29.581Z,70.57
2023-06-10T03:16:56.045Z,70.66
2023-06-10T03:19:22.490Z,70.36
2023-06-10T03:21:51.262Z,70.96
2023-06-10T03:24:20.812Z,70.92
2023-06-10T03:26:48.038Z,71.24
2023-06-10T03:29:14.444Z,71.01
2023-06-10T03:31:41.160Z,71.30
2023-06-10T03:34:07.609Z,70.95
2023-06-10T03:36:34.235Z,71.54
2023-06-10T03:39:01.123Z,71.55
2023-06-10T03:41:27.584Z,71.76
2023-06-10T03:43:54.069Z,71.32
2023-06-10T03:46:20.677Z,71.57
2023-06-10T03:48:47.509Z,71.70
2023-06-10T03:51:13.954Z,72.37
2023-06-10T03:53:40.554Z,72.90
2023-06-10T03:56:07.322Z,72.74
2023-06-10T03:58:33.998Z,72.96
2023-06-10T04:01:01.040Z,72.88
2023-06-10T04:03:28.445Z,72.71
2023-06-10T04:05:55.174Z,72.53
2023-06-10T04:08:21.780Z,72.18
2023-06-10T04:10:48.476Z,72.57
2023-06-10T04:13:15.757Z,72.71
2023-06-10T04:15:42.577Z,72.73
2023-06-10T04:18:11.735Z,72.59
2023-06-10T04:20:41.037Z,72.58
2023-06-10T04:23:07.606Z,72.84
2023-06-10T04:25:34.742Z,72.94
2023-06-10T04:28:01.258Z,73.31
2023-06-10T04:30:27.678Z,73.38
2023-06-10T04:32:54.159Z,73.29
2023-06-10T04:35:20.691Z,73.17
2023-06-10T04:37:47.584Z,72.49
2023-06-10T04:40:14.763Z,72.41
2023-06-10T04:42:41.230Z,72.28
2023-06-10T04:45:08.798Z,72.48
2023-06-10T04:47:35.996Z,72.93
2023-06-10T04:50:04.415Z,72.82
2023-06-10T04:52:30.904Z,72.58
2023-06-10T04:54:59.463Z,72.54
2023-06-10T04:57:27.203Z,72.73
2023-06-10T04:59:55.257Z,73.03
2023-06-10T05:02:21.860Z,73.26
2023-06-10T05:04:49.017Z,72.92
2023-06-10T05:07:15.611Z,72.79
2023-06-10T05:09:42.151Z,72.59
2023-06-10T05:12:09.949Z,72.55
2023-06-10T05:14:36.693Z,72.36
2023-06-10T05:17:07.847Z,72.63
2023-06-10T05:19:34.370Z,72.57
2023-06-10T05:22:00.978Z,72.29
2023-06-10T05:24:27.469Z,71.59
2023-06-10T05:26:53.871Z,71.23
2023-06-10T05:29:20.750Z,70.72
2023-06-10T05:31:50.049Z,70.90
2023-06-10T05:34:16.850Z,71.16
2023-06-10T05:36:43.676Z,71.19
2023-06-10T05:39:11.099Z,71.12
2023-06-10T05:41:38.188Z,71.30
2023-06-10T05:44:05.406Z,71.08
2023-06-10T05:46:33.057Z,70.53
2023-06-10T05:48:59.607Z,70.07
2023-06-10T05:51:26.538Z,69.38
2023-06-10T05:53:53.044Z,68.60
2023-06-10T05:56:19.477Z,66.55
2023-06-10T05:58:45.931Z,66.78
2023-06-10T06:01:12.406Z,65.73
2023-06-10T06:03:39.062Z,65.07
2023-06-10T06:06:06.117Z,64.38
2023-06-10T06:08:32.596Z,64.14
2023-06-10T06:10:59.023Z,63.65
2023-06-10T06:13:25.646Z,62.36
2023-06-10T06:15:52.124Z,61.69
2023-06-10T06:18:19.714Z,61.54
2023-06-10T06:20:46.370Z,60.52
2023-06-10T06:23:13.234Z,58.75
2023-06-10T06:25:40.262Z,58.35
2023-06-10T06:28:13.438Z,57.72
2023-06-10T06:32:38.356Z,56.47
2023-06-10T06:35:07.142Z,56.38
2023-06-10T06:37:37.699Z,56.83
2023-06-10T06:40:05.036Z,55.93
2023-06-10T06:42:33.327Z,55.83
2023-06-10T06:45:00.239Z,55.60
2023-06-10T06:47:27.737Z,55.07
2023-06-10T06:49:54.360Z,54.87
2023-06-10T06:52:20.812Z,54.20
2023-06-10T06:54:47.362Z,54.42
2023-06-10T06:57:13.828Z,54.36
2023-06-10T06:59:40.510Z,54.49
2023-06-10T07:02:07.254Z,54.13
2023-06-10T07:04:36.696Z,54.63
2023-06-10T07:07:03.465Z,53.29
2023-06-10T07:09:30.058Z,53.66
2023-06-10T07:12:01.365Z,53.53
2023-06-10T07:14:27.785Z,53.26
2023-06-10T07:16:56.503Z,53.59
2023-06-10T07:19:23.032Z,53.24
2023-06-10T07:21:49.439Z,53.09
2023-06-10T07:24:16.150Z,52.74
2023-06-10T07:26:42.739Z,52.18
2023-06-10T07:29:09.549Z,52.66
2023-06-10T07:31:36.033Z,52.90
2023-06-10T07:34:02.557Z,52.72
2023-06-10T07:36:30.430Z,52.52
2023-06-10T07:38:56.910Z,52.10
2023-06-10T07:41:26.496Z,52.39
2023-06-10T07:43:57.040Z,52.00
2023-06-10T07:46:24.682Z,51.96
2023-06-10T07:48:55.443Z,52.25
2023-06-10T07:51:25.583Z,50.98
2023-06-10T07:53:55.321Z,51.18
2023-06-10T07:56:23.079Z,50.22
2023-06-10T07:58:49.644Z,49.78
2023-06-10T08:01:19.454Z,49.88
2023-06-10T08:03:55.452Z,48.34
2023-06-10T08:06:22.109Z,47.93
2023-06-10T08:08:48.794Z,46.88
2023-06-10T08:11:15.798Z,47.10
2023-06-10T08:13:43.266Z,46.93
2023-06-10T08:16:09.981Z,46.81
2023-06-10T08:18:38.606Z,44.97
2023-06-10T08:21:05.355Z,43.59
2023-06-10T08:23:37.073Z,41.52
2023-06-10T08:26:06.633Z,38.68
2023-06-10T08:28:40.640Z,38.07
2023-06-10T08:31:07.349Z,37.55
2023-06-10T08:33:36.477Z,37.36
2023-06-10T08:36:03.043Z,36.41
2023-06-10T08:38:36.766Z,35.50
2023-06-10T08:41:10.550Z,35.55
2023-06-10T08:44:07.385Z,35.14
2023-06-10T08:46:47.707Z,35.73
2023-06-10T08:49:19.421Z,35.38
2023-06-10T08:51:47.563Z,36.29
2023-06-10T08:54:22.360Z,34.95
2023-06-10T08:57:08.509Z,34.01
2023-06-10T08:59:46.980Z,33.55
2023-06-10T09:02:21.068Z,33.66
2023-06-10T09:04:52.847Z,33.79
2023-06-10T09:07:22.967Z,32.74
2023-06-10T09:09:51.413Z,33.09
2023-06-10T09:12:21.072Z,33.18
2023-06-10T09:15:08.464Z,34.71
2023-06-10T09:17:40.968Z,35.81
2023-06-10T09:20:21.017Z,34.77
2023-06-10T09:23:08.434Z,34.48
2023-06-10T09:25:38.548Z,37.11
2023-06-10T09:28:06.072Z,35.04
2023-06-10T09:30:35.943Z,34.35
2023-06-10T09:33:11.475Z,34.35
2023-06-10T09:35:47.252Z,34.46
2023-06-10T09:38:15.108Z,33.84
2023-06-10T09:40:52.062Z,32.05
2023-06-10T09:43:18.709Z,32.47
2023-06-10T09:45:45.430Z,32.39
2023-06-10T09:48:12.063Z,31.10
2023-06-10T09:50:45.137Z,32.00
2023-06-10T09:53:15.278Z,32.85
2023-06-10T09:55:42.802Z,31.01
2023-06-10T09:58:09.252Z,28.52
2023-06-10T10:00:37.302Z,29.06
2023-06-10T10:03:04.392Z,32.92
2023-06-10T10:05:39.495Z,35.79
2023-06-10T10:08:06.388Z,33.80
2023-06-10T10:10:34.216Z,33.46
2023-06-10T10:13:01.492Z,29.96
2023-06-10T10:15:31.971Z,28.72
2023-06-10T10:18:10.181Z,30.16
2023-06-10T10:20:47.348Z,30.88
2023-06-10T10:23:19.876Z,34.49
2023-06-10T10:25:53.347Z,37.23
2023-06-10T10:28:22.965Z,34.23
2023-06-10T10:30:52.492Z,31.44
2023-06-10T10:33:34.612Z,30.36
2023-06-10T10:36:01.897Z,29.53
2023-06-10T10:38:30.532Z,32.15
2023-06-10T10:41:01.881Z,30.31
2023-06-10T10:43:29.965Z,32.94
2023-06-10T10:46:04.708Z,31.92
2023-06-10T10:48:39.565Z,30.71
2023-06-10T10:51:06.522Z,26.74
2023-06-10T10:53:33.455Z,25.81
2023-06-10T10:56:14.324Z,24.68
2023-06-10T10:58:41.649Z,25.77
2023-06-10T11:01:16.541Z,29.01
2023-06-10T11:03:51.499Z,29.06
2023-06-10T11:06:21.739Z,30.75
2023-06-10T11:08:50.271Z,32.04
2023-06-10T11:11:26.428Z,30.99
2023-06-10T11:14:27.329Z,27.63
2023-06-10T11:16:57.265Z,27.47
2023-06-10T11:19:40.314Z,28.90
2023-06-10T11:22:10.412Z,30.77
2023-06-10T11:24:44.521Z,31.22
2023-06-10T11:27:28.930Z,31.74
2023-06-10T11:30:03.864Z,31.94
2023-06-10T11:32:35.405Z,32.76
2023-06-10T11:35:11.447Z,33.40
2023-06-10T11:37:38.635Z,33.99
2023-06-10T11:40:17.911Z,34.13
2023-06-10T11:42:48.403Z,34.57
2023-06-10T11:45:18.427Z,34.47
2023-06-10T11:48:06.991Z,34.76
2023-06-10T11:50:40.310Z,34.95
2023-06-10T11:53:09.562Z,34.31
2023-06-10T11:55:44.418Z,34.68
2023-06-10T11:58:31.114Z,34.87
2023-06-10T12:00:59.048Z,34.10
2023-06-10T12:03:28.954Z,34.15
2023-06-10T12:06:05.801Z,33.82
2023-06-10T12:08:37.093Z,32.56
2023-06-10T12:11:03.882Z,30.28
2023-06-10T12:13:30.440Z,28.56
2023-06-10T12:16:07.476Z,27.11
2023-06-10T12:18:34.293Z,26.22
2023-06-10T12:21:01.378Z,25.62
2023-06-10T12:23:27.975Z,26.41
2023-06-10T12:25:56.117Z,25.57
2023-06-10T12:28:24.880Z,24.34
2023-06-10T12:30:51.969Z,24.38
2023-06-10T12:33:19.953Z,24.02
2023-06-10T12:35:50.923Z,24.77
2023-06-10T12:38:28.281Z,24.38
2023-06-10T12:40:54.882Z,24.94
2023-06-10T12:43:24.696Z,25.03
2023-06-10T12:45:51.259Z,23.93
2023-06-10T12:48:27.896Z,25.59
2023-06-10T12:50:57.921Z,27.09
2023-06-10T12:53:25.716Z,28.64
2023-06-10T12:55:52.809Z,28.67
2023-06-10T12:58:24.308Z,28.31
2023-06-10T13:00:54.701Z,28.64
2023-06-10T13:03:21.783Z,29.22
2023-06-10T13:05:49.604Z,30.49
2023-06-10T13:08:16.679Z,30.24
2023-06-10T13:10:43.235Z,30.35
2023-06-10T13:13:10.899Z,30.29
2023-06-10T13:15:41.585Z,30.60
2023-06-10T13:18:13.240Z,30.78
2023-06-10T13:20:40.425Z,29.82
2023-06-10T13:23:07.113Z,27.79
2023-06-10T13:25:33.637Z,24.65
2023-06-10T13:28:02.231Z,25.25
2023-06-10T13:30:28.868Z,24.11
2023-06-10T13:32:55.449Z,24.44
2023-06-10T13:35:22.070Z,23.15
2023-06-10T13:37:48.679Z,23.32
2023-06-10T13:40:25.069Z,23.04
2023-06-10T13:42:53.577Z,22.88
2023-06-10T13:45:20.040Z,23.21
2023-06-10T13:47:46.788Z,23.29
2023-06-10T13:50:15.715Z,25.55
2023-06-10T13:52:42.110Z,26.09
2023-06-10T13:55:10.292Z,26.90
2023-06-10T13:57:37.507Z,26.21
2023-06-10T14:00:07.000Z,25.79
2023-06-10T14:02:33.848Z,24.71
2023-06-10T14:05:00.647Z,24.56
2023-06-10T14:07:27.361Z,24.01
2023-06-10T14:09:54.111Z,23.92
2023-06-10T14:12:20.746Z,24.08
2023-06-10T14:14:47.215Z,23.65
2023-06-10T14:17:13.878Z,24.25
2023-06-10T14:19:41.565Z,24.83
2023-06-10T14:22:10.492Z,24.86
2023-06-10T14:24:39.916Z,24.56
2023-06-10T14:27:07.388Z,23.21
2023-06-10T14:29:34.712Z,23.51
2023-06-10T14:32:08.392Z,23.80
2023-06-10T14:34:36.495Z,23.63
2023-06-10T14:37:05.222Z,23.44
2023-06-10T14:39:31.851Z,23.42
2023-06-10T14:41:58.305Z,23.02
2023-06-10T14:44:25.331Z,23.27
2023-06-10T14:46:53.094Z,23.97
2023-06-10T14:49:19.719Z,23.71
2023-06-10T14:51:46.410Z,24.64
2023-06-10T14:54:12.932Z,23.53
2023-06-10T14:56:39.391Z,23.69
2023-06-10T14:59:05.896Z,23.38
2023-06-10T15:01:34.669Z,23.49
2023-06-10T15:04:02.120Z,23.52
2023-06-10T15:06:28.952Z,23.42
2023-06-10T15:08:55.842Z,23.33
2023-06-10T15:11:23.054Z,23.09
2023-06-10T15:13:49.512Z,23.09
2023-06-10T15:16:16.253Z,23.51
2023-06-10T15:18:43.198Z,23.23
2023-06-10T15:21:09.627Z,24.82
2023-06-10T15:23:36.231Z,24.85
2023-06-10T15:26:02.695Z,24.91
2023-06-10T15:28:29.213Z,25.71
2023-06-10T15:30:55.798Z,24.24
2023-06-10T15:33:22.268Z,23.48
2023-06-10T15:35:48.756Z,22.92
2023-06-10T15:38:15.665Z,23.65
2023-06-10T15:40:42.798Z,23.07
2023-06-10T15:43:09.231Z,22.98
2023-06-10T15:45:36.028Z,22.73
2023-06-10T15:48:02.835Z,22.63
2023-06-10T15:50:29.405Z,22.98
2023-06-10T15:52:55.892Z,22.70
2023-06-10T15:55:22.506Z,22.73
2023-06-10T15:57:48.922Z,23.39
2023-06-10T16:00:24.130Z,23.32
2023-06-10T16:02:50.655Z,23.24
2023-06-10T16:05:17.382Z,23.70
2023-06-10T16:07:43.905Z,23.48
2023-06-10T16:10:10.662Z,23.72
2023-06-10T16:12:37.273Z,23.96
2023-06-10T16:15:04.567Z,24.31
2023-06-10T16:17:31.049Z,24.36
2023-06-10T16:19:57.571Z,24.08
2023-06-10T16:22:24.047Z,24.53
2023-06-10T16:24:50.529Z,24.71
2023-06-10T16:27:17.149Z,24.67
2023-06-10T16:29:43.663Z,24.90
2023-06-10T16:32:10.159Z,24.55
2023-06-10T16:34:36.685Z,24.47
2023-06-10T16:37:03.841Z,24.78
2023-06-10T16:39:30.729Z,25.17
2023-06-10T16:41:57.254Z,25.42
2023-06-10T16:44:23.783Z,26.33
2023-06-10T16:46:50.533Z,26.63
2023-06-10T16:49:17.114Z,26.64
2023-06-10T16:51:43.628Z,27.21
2023-06-10T16:54:10.105Z,26.26
2023-06-10T16:56:36.912Z,27.34
2023-06-10T16:59:03.363Z,26.76
2023-06-10T17:01:30.076Z,27.50
2023-06-10T17:03:56.581Z,27.72
2023-06-10T17:06:23.103Z,27.00
2023-06-10T17:08:49.568Z,26.77
2023-06-10T17:11:18.836Z,26.78
2023-06-10T17:13:46.003Z,27.09
2023-06-10T17:16:13.960Z,26.72
2023-06-10T17:18:40.532Z,27.33
2023-06-10T17:21:07.115Z,27.78
2023-06-10T17:23:33.609Z,27.87
2023-06-10T17:26:00.047Z,27.41
2023-06-10T17:28:29.221Z,27.99
2023-06-10T17:30:55.764Z,27.91
2023-06-10T17:33:22.215Z,28.37
2023-06-10T17:35:50.027Z,28.48
2023-06-10T17:38:17.827Z,28.82
2023-06-10T17:40:44.308Z,28.77
2023-06-10T17:43:10.763Z,28.64
2023-06-10T17:45:37.575Z,28.53
2023-06-10T17:48:04.519Z,28.58
2023-06-10T17:50:31.286Z,29.05
2023-06-10T17:52:57.992Z,28.95
2023-06-10T17:57:45.367Z,29.11
2023-06-10T18:00:12.263Z,29.80
2023-06-10T18:02:39.160Z,29.96
2023-06-10T18:05:06.161Z,30.12
2023-06-10T18:07:32.693Z,30.42
2023-06-10T18:10:00.803Z,30.88
2023-06-10T18:12:27.742Z,33.29
2023-06-10T18:14:54.158Z,33.15
2023-06-10T18:17:20.674Z,34.65
2023-06-10T18:19:47.642Z,33.32
2023-06-10T18:22:14.164Z,34.22
2023-06-10T18:24:40.653Z,34.09
2023-06-10T18:27:08.507Z,34.39
2023-06-10T18:29:35.713Z,35.86
2023-06-10T18:32:11.345Z,34.95
2023-06-10T18:34:38.197Z,35.55
2023-06-10T18:37:06.802Z,35.92
2023-06-10T18:39:34.411Z,36.16
2023-06-10T18:42:03.893Z,35.77
2023-06-10T18:44:30.814Z,36.43
2023-06-10T18:46:57.380Z,36.20
2023-06-10T18:49:23.845Z,36.29
2023-06-10T18:51:50.533Z,36.46
2023-06-10T18:54:18.472Z,36.56
2023-06-10T18:56:45.071Z,36.91
2023-06-10T18:59:11.620Z,36.92
2023-06-10T19:01:38.188Z,36.66
2023-06-10T19:04:05.032Z,37.38
2023-06-10T19:06:31.600Z,37.44
2023-06-10T19:08:58.060Z,37.97
2023-06-10T19:11:25.073Z,37.46
2023-06-10T19:13:51.804Z,37.71
2023-06-10T19:16:18.264Z,38.26
2023-06-10T19:18:44.760Z,38.43
2023-06-10T19:21:11.560Z,38.60
2023-06-10T19:23:38.186Z,38.85
2023-06-10T19:26:04.822Z,39.35
2023-06-10T19:28:31.565Z,39.81
2023-06-10T19:30:58.122Z,39.52
2023-06-10T19:33:24.634Z,39.84
2023-06-10T19:35:51.167Z,40.61
2023-06-10T19:38:19.424Z,40.50
2023-06-10T19:40:46.050Z,40.82
2023-06-10T19:43:13.454Z,40.86
2023-06-10T19:45:39.934Z,41.31
2023-06-10T19:48:15.171Z,41.51
2023-06-10T19:50:47.857Z,41.61
2023-06-10T19:53:14.364Z,42.21
2023-06-10T19:55:43.259Z,42.30
2023-06-10T19:58:09.741Z,42.45
2023-06-10T20:00:39.300Z,42.87
2023-06-10T20:03:05.892Z,43.27
2023-06-10T20:05:34.142Z,43.74
2023-06-10T20:08:00.631Z,44.15
2023-06-10T20:10:29.752Z,44.40
2023-06-10T20:12:56.205Z,44.82
2023-06-10T20:15:22.967Z,44.88
2023-06-10T20:17:51.508Z,45.09
2023-06-10T20:20:18.086Z,45.21
2023-06-10T20:22:44.527Z,45.44
2023-06-10T20:25:14.415Z,45.58
2023-06-10T20:27:41.325Z,45.68
2023-06-10T20:30:08.794Z,46.12
2023-06-10T20:32:35.718Z,46.29
2023-06-10T20:35:02.290Z,46.74
2023-06-10T20:37:28.848Z,47.00
2023-06-10T20:39:58.393Z,47.27
2023-06-10T20:42:24.873Z,47.67
2023-06-10T20:44:51.419Z,47.89
2023-06-10T20:47:18.105Z,48.16
2023-06-10T20:49:44.733Z,48.37
2023-06-10T20:52:11.374Z,48.62
2023-06-10T20:54:37.928Z,48.86
2023-06-10T20:57:04.815Z,48.89
2023-06-10T20:59:31.682Z,49.05
2023-06-10T21:01:58.156Z,49.18
2023-06-10T21:04:24.647Z,49.26
2023-06-10T21:06:51.271Z,49.27
2023-06-10T21:09:17.740Z,49.24
2023-06-10T21:11:44.454Z,49.11
2023-06-10T21:14:10.931Z,49.27
2023-06-10T21:16:38.349Z,49.14
2023-06-10T21:19:05.126Z,49.29
2023-06-10T21:21:31.632Z,49.48
2023-06-10T21:23:58.198Z,49.54
2023-06-10T21:26:24.830Z,49.86
2023-06-10T21:28:52.606Z,49.92
2023-06-10T21:31:21.741Z,50.22
2023-06-10T21:33:48.260Z,50.21
2023-06-10T21:36:17.247Z,50.40
2023-06-10T21:38:45.716Z,50.47
2023-06-10T21:41:12.168Z,50.70
2023-06-10T21:43:38.755Z,50.55
2023-06-10T21:46:05.572Z,51.02
2023-06-10T21:48:32.112Z,51.03
2023-06-10T21:50:59.353Z,51.14
2023-06-10T21:53:25.932Z,51.29
2023-06-10T21:55:52.507Z,51.45
2023-06-10T21:58:18.991Z,51.82
2023-06-10T22:00:45.589Z,52.11
2023-06-10T22:03:12.209Z,52.05
2023-06-10T22:05:39.555Z,52.35
2023-06-10T22:08:06.003Z,52.22
2023-06-10T22:10:32.645Z,52.42
2023-06-10T22:12:59.152Z,52.69
2023-06-10T22:15:25.788Z,52.87
2023-06-10T22:17:52.423Z,52.91
2023-06-10T22:20:21.681Z,53.13
2023-06-10T22:22:48.255Z,53.27
2023-06-10T22:25:15.983Z,53.27
2023-06-10T22:27:42.703Z,53.15
2023-06-10T22:30:09.718Z,53.62
2023-06-10T22:32:36.482Z,53.31
2023-06-10T22:35:07.122Z,53.40
2023-06-10T22:37:35.598Z,53.42
2023-06-10T22:40:03.715Z,53.54
2023-06-10T22:42:30.522Z,53.66
2023-06-10T22:44:57.341Z,53.73
2023-06-10T22:47:24.010Z,53.83
2023-06-10T22:49:51.250Z,53.71
2023-06-10T22:52:21.474Z,53.79
2023-06-10T22:54:47.919Z,53.99
2023-06-10T22:57:16.794Z,54.08
2023-06-10T22:59:43.416Z,54.00
2023-06-10T23:02:10.072Z,54.13
2023-06-10T23:04:36.911Z,54.24
2023-06-10T23:07:03.528Z,54.59
2023-06-10T23:09:30.077Z,54.66
2023-06-10T23:12:05.916Z,54.76
2023-06-10T23:14:33.122Z,54.80
2023-06-10T23:16:59.866Z,55.02
2023-06-10T23:19:28.133Z,55.24
2023-06-10T23:21:55.340Z,55.52
2023-06-10T23:24:30.149Z,55.89
2023-06-10T23:26:58.850Z,55.53
2023-06-10T23:29:28.787Z,55.68
2023-06-10T23:31:56.077Z,55.89
2023-06-10T23:34:25.977Z,56.05
2023-06-10T23:36:55.043Z,56.28
2023-06-10T23:39:23.804Z,56.57
2023-06-10T23:41:50.852Z,56.43
2023-06-10T23:44:17.410Z,56.52
2023-06-10T23:46:44.000Z,56.73
2023-06-10T23:49:10.685Z,56.92
2023-06-10T23:51:38.321Z,56.83
2023-06-10T23:54:05.517Z,56.85
2023-06-10T23:56:33.012Z,56.93
